Time;durP1;ratioP1;P1;durP2;ratioP2;P2;SDS_P1;SDS_P2;PMS_P1;PMS_P2;Temp;Humidity;BMP_temperature;BMP_pressure;BME280_temperature;BME280_humidity;BME280_pressure;Samples;Min_cycle;Max_cycle;Signal;HPM_P1;HPM_P2
2020/12/24 00:00:00;;;;;;;9.33;1.70;;;13.70;99.90;;;13.91;53.75;100345.69;4875033;28;100846;-62
2020/12/24 00:02:26;;;;;;;9.03;1.80;;;13.70;99.90;;;13.85;55.54;100338.91;4859244;28;97607;-62
2020/12/24 00:04:52;;;;;;;6.10;1.83;;;13.50;99.90;;;13.84;54.73;100339.84;4834473;28;105066;-62
2020/12/24 00:07:18;;;;;;;7.70;2.07;;;13.60;99.90;;;13.92;58.39;100335.00;4878713;28;99802;-61
2020/12/24 00:09:47;;;;;;;8.20;1.97;;;13.60;99.90;;;13.79;53.83;100338.41;4851022;28;97194;-62
2020/12/24 00:12:13;;;;;;;9.10;2.10;;;13.50;99.90;;;13.73;53.76;100328.97;4873193;28;99333;-61
2020/12/24 00:14:39;;;;;;;7.77;1.60;;;13.50;99.90;;;13.89;59.18;100319.28;4830329;28;100753;-62
2020/12/24 00:17:06;;;;;;;5.33;1.50;;;13.60;99.90;;;13.85;56.09;100325.66;4856073;28;98928;-61
2020/12/24 00:19:31;;;;;;;8.63;1.67;;;13.60;99.90;;;13.90;54.66;100320.13;4827807;28;97339;-62
2020/12/24 00:21:57;;;;;;;9.83;1.70;;;13.60;99.90;;;13.88;55.77;100314.88;4879555;28;98782;-61
2020/12/24 00:24:23;;;;;;;7.50;2.27;;;13.60;99.90;;;13.86;57.04;100314.13;4840769;28;103817;-62
2020/12/24 00:26:49;;;;;;;7.63;1.80;;;13.60;99.90;;;13.72;58.93;100311.34;4863422;28;103881;-61
2020/12/24 00:29:15;;;;;;;6.57;1.70;;;13.40;99.90;;;13.68;56.39;100304.50;4842087;28;105905;-61
2020/12/24 00:31:41;;;;;;;10.17;1.80;;;13.40;99.90;;;13.71;55.01;100309.63;4845280;28;98063;-61
2020/12/24 00:34:07;;;;;;;5.47;1.80;;;13.50;99.90;;;13.74;53.85;100308.63;4857690;28;98842;-61
2020/12/24 00:36:34;;;;;;;5.17;1.43;;;13.50;99.90;;;13.69;55.00;100308.88;4847232;28;100018;-61
2020/12/24 00:39:00;;;;;;;9.20;2.07;;;13.40;99.90;;;13.93;55.98;100304.91;4869705;28;99956;-62
2020/12/24 00:41:26;;;;;;;8.13;1.93;;;13.60;99.90;;;13.91;53.96;100306.78;4860326;28;103043;-62
2020/12/24 00:43:52;;;;;;;8.63;1.70;;;13.70;99.90;;;13.97;54.58;100303.78;4854055;28;98609;-62
2020/12/24 00:46:18;;;;;;;9.63;2.03;;;13.70;99.90;;;13.87;56.84;100294.63;4849426;28;100525;-62
2020/12/24 00:48:44;;;;;;;5.80;1.80;;;13.60;99.90;;;13.91;53.37;100306.78;4876373;28;110896;-62
2020/12/24 00:51:11;;;;;;;7.37;1.87;;;13.60;99.90;;;13.92;52.85;100303.19;4842738;28;100019;-61
2020/12/24 00:53:37;;;;;;;9.50;1.90;;;13.70;99.90;;;13.96;58.91;100310.03;4863314;28;98994;-61
2020/12/24 00:56:03;;;;;;;9.10;2.20;;;13.60;99.90;;;13.87;52.71;100294.63;4834203;28;99279;-62
2020/12/24 00:58:29;;;;;;;7.07;2.07;;;13.60;99.90;;;13.85;53.86;100290.34;4883606;28;98261;-61
2020/12/24 01:00:56;;;;;;;6.17;1.93;;;13.60;99.90;;;13.91;53.43;100296.19;4855473;28;102729;-61
2020/12/24 01:03:23;;;;;;;9.30;1.97;;;13.60;99.90;;;13.91;52.54;100296.19;4860165;28;100881;-61
2020/12/24 01:05:49;;;;;;;10.77;2.43;;;13.70;99.90;;;13.91;54.12;100296.19;4849440;28;99721;-62
2020/12/24 01:08:15;;;;;;;8.17;2.17;;;13.60;99.90;;;13.83;52.23;100293.06;4868412;28;99476;-62
2020/12/24 01:10:41;;;;;;;12.07;2.10;;;13.60;99.90;;;13.96;55.19;100288.81;4859966;28;99395;-62
2020/12/24 01:13:07;;;;;;;7.43;1.80;;;13.60;99.90;;;14.01;54.24;100291.19;4857053;28;104367;-61
2020/12/24 01:15:33;;;;;;;8.67;2.30;;;13.70;99.90;;;14.00;51.66;100295.66;4858866;28;103361;-61
2020/12/24 01:17:59;;;;;;;10.30;2.20;;;13.70;99.90;;;13.92;56.08;100281.97;4861451;28;104112;-61
2020/12/24 01:20:24;;;;;;;7.87;2.47;;;13.60;99.90;;;13.93;54.48;100280.19;4879117;28;99238;-62
2020/12/24 01:22:50;;;;;;;8.50;2.37;;;13.60;99.90;;;13.90;53.09;100283.00;4824948;28;104320;-61
2020/12/24 01:25:16;;;;;;;9.90;2.30;;;13.60;99.90;;;13.78;51.25;100273.94;4870385;28;108205;-61
2020/12/24 01:27:42;;;;;;;9.90;2.10;;;13.50;99.70;;;13.82;54.71;100278.09;4878976;28;98253;-61
2020/12/24 01:30:07;;;;;;;10.63;1.87;;;13.40;99.90;;;13.77;55.16;100282.81;4856451;28;96995;-61
2020/12/24 01:32:33;;;;;;;5.47;1.70;;;13.40;99.90;;;13.61;51.92;100287.25;4838173;28;121844;-62
2020/12/24 01:34:59;;;;;;;4.43;1.43;;;13.30;99.80;;;13.69;53.20;100285.03;4858484;28;97568;-62
2020/12/24 01:37:25;;;;;;;8.67;2.47;;;13.40;99.90;;;13.70;51.67;100281.44;4854775;28;103303;-62
2020/12/24 01:39:50;;;;;;;10.83;2.30;;;13.40;99.90;;;13.64;50.35;100277.31;4846876;28;97436;-61
2020/12/24 01:42:19;;;;;;;7.37;2.33;;;13.30;99.40;;;13.62;50.27;100283.66;4852515;28;99529;-62
2020/12/24 01:44:48;;;;;;;9.10;2.17;;;13.30;99.20;;;13.73;51.26;100275.94;4829290;28;100478;-63
2020/12/24 01:47:15;;;;;;;9.27;1.87;;;13.40;99.80;;;13.65;50.71;100270.22;4868999;28;98980;-62
2020/12/24 01:49:41;;;;;;;9.87;2.27;;;13.40;99.50;;;13.70;51.56;100270.81;4841729;28;97368;-61
2020/12/24 01:52:21;;;;;;;8.40;2.13;;;13.40;99.70;;;13.77;54.93;100266.91;4849638;28;100711;-62
2020/12/24 01:54:49;;;;;;;9.83;2.07;;;13.40;99.90;;;13.79;51.80;100265.03;4855228;28;101616;-62
2020/12/24 01:57:15;;;;;;;9.77;2.93;;;13.50;99.70;;;13.79;55.53;100264.19;4874829;28;98093;-62
2020/12/24 01:59:41;;;;;;;10.30;2.50;;;13.40;99.70;;;13.76;50.96;100265.22;5019901;23;98882;-62
2020/12/24 02:02:07;;;;;;;11.93;2.40;;;13.50;99.40;;;13.78;51.12;100265.97;4855185;28;120468;-62
2020/12/24 02:04:33;;;;;;;10.17;2.57;;;13.40;99.60;;;13.76;50.72;100270.50;4861467;28;105446;-61
2020/12/24 02:06:58;;;;;;;9.47;2.00;;;13.50;99.30;;;13.75;51.06;100268.81;4869626;28;97665;-62
2020/12/24 02:09:24;;;;;;;9.53;2.23;;;13.40;99.50;;;13.73;51.45;100259.19;4855698;28;98922;-62
2020/12/24 02:11:50;;;;;;;8.47;2.17;;;13.40;99.40;;;13.83;58.06;100269.22;4840897;28;100031;-62
2020/12/24 02:14:16;;;;;;;13.27;3.00;;;13.40;99.90;;;13.67;50.65;100261.25;4830715;28;116191;-61
2020/12/24 02:16:42;;;;;;;9.63;2.10;;;13.30;99.20;;;13.64;51.11;100265.88;4823924;28;100653;-62
2020/12/24 02:19:07;;;;;;;9.30;2.17;;;13.30;99.30;;;13.58;51.63;100258.22;4866700;28;98006;-62
2020/12/24 02:21:34;;;;;;;9.47;2.20;;;13.20;99.80;;;13.55;52.30;100261.06;4865313;28;104844;-62
2020/12/24 02:24:01;;;;;;;9.80;2.20;;;13.20;99.40;;;13.49;51.29;100258.75;4863307;28;99547;-62
2020/12/24 02:26:30;;;;;;;9.93;2.00;;;13.20;99.60;;;13.61;56.66;100266.03;4866467;28;97472;-62
2020/12/24 02:28:56;;;;;;;7.27;1.73;;;13.20;99.90;;;13.62;56.04;100263.31;4873767;28;97871;-61
2020/12/24 02:31:22;;;;;;;9.20;1.93;;;13.20;99.50;;;13.49;50.15;100266.69;4850898;28;99459;-62
2020/12/24 02:33:47;;;;;;;6.50;1.90;;;13.20;98.70;;;13.49;55.88;100261.41;4853792;28;99047;-62
2020/12/24 02:36:13;;;;;;;11.57;2.67;;;13.10;99.90;;;13.39;50.20;100264.53;4859618;28;118044;-61
2020/12/24 02:38:39;;;;;;;9.93;2.10;;;13.10;98.90;;;13.39;50.52;100261.88;4853437;28;97974;-62
2020/12/24 02:41:05;;;;;;;6.70;2.17;;;13.10;99.10;;;13.39;50.16;100267.19;4863765;28;100801;-62
2020/12/24 02:43:31;;;;;;;9.60;2.23;;;13.10;98.90;;;13.38;49.88;100265.47;4852900;28;99836;-62
2020/12/24 02:45:57;;;;;;;7.13;1.90;;;13.10;98.60;;;13.49;53.97;100258.75;4875863;28;97115;-62
2020/12/24 02:48:23;;;;;;;6.30;2.13;;;13.10;99.40;;;13.39;50.34;100256.59;4837294;28;97586;-61
2020/12/24 02:50:48;;;;;;;6.80;1.73;;;13.10;98.90;;;13.42;50.93;100260.00;4857357;28;101215;-62
2020/12/24 02:53:14;;;;;;;9.97;2.30;;;13.10;99.80;;;13.50;50.41;100273.72;4842100;28;99810;-62
2020/12/24 02:55:40;;;;;;;7.37;1.60;;;13.20;99.20;;;13.54;50.92;100262.00;4855918;28;97414;-62
2020/12/24 02:58:06;;;;;;;7.70;1.83;;;13.30;99.90;;;13.54;49.65;100264.66;4842071;28;112079;-62
2020/12/24 03:00:32;;;;;;;10.73;1.93;;;13.30;98.60;;;13.55;54.81;100263.72;4877945;28;99595;-62
2020/12/24 03:02:58;;;;;;;10.67;2.00;;;13.20;99.90;;;13.49;49.60;100261.41;4846455;28;100122;-61
2020/12/24 03:05:24;;;;;;;7.30;2.00;;;13.20;98.70;;;13.40;50.30;100258.28;4866608;28;98634;-61
2020/12/24 03:07:51;;;;;;;9.50;2.10;;;13.20;98.80;;;13.46;50.27;100264.22;4829991;28;100151;-61
2020/12/24 03:10:18;;;;;;;9.13;2.27;;;13.20;98.30;;;13.65;52.71;100254.31;4855902;28;100091;-62
2020/12/24 03:12:44;;;;;;;6.63;1.40;;;13.40;99.90;;;13.75;58.94;100246.75;4865046;28;101088;-61
2020/12/24 03:15:11;;;;;;;7.30;1.93;;;13.40;99.90;;;13.66;50.30;100253.38;4862626;28;100663;-62
2020/12/24 03:17:38;;;;;;;7.43;2.27;;;13.50;99.10;;;13.67;50.04;100249.78;4873610;28;97556;-62
2020/12/24 03:20:07;;;;;;;5.83;1.60;;;13.50;98.80;;;13.67;50.66;100249.78;4834149;28;98218;-61
2020/12/24 03:22:38;;;;;;;8.30;1.77;;;13.40;99.10;;;13.46;49.85;100245.69;4857146;28;99340;-62
2020/12/24 03:25:05;;;;;;;5.97;1.70;;;13.30;98.60;;;13.49;50.72;100246.38;4837562;28;98438;-62
2020/12/24 03:27:30;;;;;;;5.80;1.53;;;13.20;99.10;;;13.32;50.44;100234.03;4868405;28;98030;-61
2020/12/24 03:29:56;;;;;;;5.60;1.53;;;13.10;99.20;;;13.34;51.74;100226.84;4858630;28;99068;-61
2020/12/24 03:32:23;;;;;;;7.83;1.67;;;13.00;99.70;;;13.38;52.86;100223.09;4860291;28;98833;-62
2020/12/24 03:34:48;;;;;;;7.00;1.90;;;13.10;99.90;;;13.32;50.61;100215.50;4837227;28;102432;-61
2020/12/24 03:37:14;;;;;;;5.33;1.73;;;13.10;99.20;;;13.53;51.77;100215.25;4869783;28;97395;-61
2020/12/24 03:39:40;;;;;;;5.60;1.60;;;13.20;99.90;;;13.37;50.92;100220.53;4857951;28;99109;-61
2020/12/24 03:42:06;;;;;;;6.10;1.83;;;13.10;99.30;;;13.33;50.87;100222.50;4853803;28;99052;-61
2020/12/24 03:44:32;;;;;;;8.27;1.70;;;13.10;99.40;;;13.27;51.33;100236.03;4851959;28;97456;-62
2020/12/24 03:46:57;;;;;;;7.17;1.27;;;13.00;99.40;;;13.32;51.19;100223.44;4847833;28;103225;-61
2020/12/24 03:49:23;;;;;;;4.33;1.33;;;13.10;99.40;;;13.45;53.08;100222.75;4859540;28;102804;-61
2020/12/24 03:51:49;;;;;;;7.07;1.80;;;13.10;99.90;;;13.46;51.24;100216.53;4864340;28;98262;-61
2020/12/24 03:54:15;;;;;;;7.10;1.63;;;13.20;99.60;;;13.39;51.57;100219.50;4853326;28;110940;-61
2020/12/24 03:56:41;;;;;;;9.20;1.73;;;13.10;99.50;;;13.40;51.32;100212.41;4856107;28;109309;-61
2020/12/24 03:59:07;;;;;;;5.90;1.37;;;13.10;99.60;;;13.44;57.80;100210.44;4883572;28;111844;-62
2020/12/24 04:01:32;;;;;;;10.90;1.80;;;13.10;99.90;;;13.37;51.11;100213.44;4846402;28;114871;-62
2020/12/24 04:03:58;;;;;;;7.50;1.80;;;13.10;99.50;;;13.55;57.70;100208.06;4873723;28;97549;-61
2020/12/24 04:06:25;;;;;;;8.37;2.20;;;13.10;99.90;;;13.37;51.17;100210.78;4843839;28;98464;-62
2020/12/24 04:08:51;;;;;;;7.20;1.90;;;13.10;99.60;;;13.35;51.14;100207.38;4865635;28;99555;-61
2020/12/24 04:11:19;;;;;;;5.93;1.70;;;13.00;99.60;;;13.43;52.14;100208.72;4849945;28;109839;-62
2020/12/24 04:13:45;;;;;;;8.67;2.03;;;13.10;99.90;;;13.37;54.70;100205.47;4872988;28;96947;-61
2020/12/24 04:16:11;;;;;;;6.03;1.87;;;13.00;99.90;;;13.38;54.83;100209.00;4864289;28;96947;-61
2020/12/24 04:18:38;;;;;;;7.63;1.67;;;13.00;99.90;;;13.27;51.79;100204.25;4851534;28;101972;-61
2020/12/24 04:21:04;;;;;;;9.27;2.20;;;13.00;99.80;;;13.27;51.93;100203.41;4852193;28;101009;-61
2020/12/24 04:23:30;;;;;;;7.90;1.83;;;13.00;99.80;;;13.33;52.51;100206.59;4866546;28;99126;-61
2020/12/24 04:25:56;;;;;;;7.83;2.03;;;13.00;99.90;;;13.35;51.84;100202.06;4861927;28;102516;-61
2020/12/24 04:28:22;;;;;;;6.73;2.10;;;13.10;99.90;;;13.33;52.08;100193.34;4861863;28;100673;-62
2020/12/24 04:30:48;;;;;;;6.13;1.97;;;13.00;99.90;;;13.32;53.34;100196.94;4857343;28;104297;-61
2020/12/24 04:33:13;;;;;;;11.57;2.30;;;13.00;99.90;;;13.30;54.07;100197.94;4860897;28;108578;-62
2020/12/24 04:35:40;;;;;;;8.33;2.23;;;13.00;99.90;;;13.34;54.29;100194.22;4857803;28;97063;-62
2020/12/24 04:38:07;;;;;;;9.70;2.07;;;13.00;99.90;;;13.36;54.88;100195.81;4860911;28;97720;-61
2020/12/24 04:40:36;;;;;;;5.33;2.00;;;13.00;99.90;;;13.33;53.57;100197.81;4905251;28;99302;-62
2020/12/24 04:43:05;;;;;;;8.00;2.10;;;13.00;99.90;;;13.47;54.12;100197.91;4864490;28;97098;-61
2020/12/24 04:45:32;;;;;;;8.10;2.10;;;13.10;99.90;;;13.45;54.05;100209.50;4882163;28;97467;-61
2020/12/24 04:47:59;;;;;;;9.50;2.03;;;13.10;99.90;;;13.36;53.03;100198.47;4864317;28;99591;-62
2020/12/24 04:50:28;;;;;;;11.13;3.33;;;13.00;99.90;;;13.32;52.50;100204.88;4881269;28;104187;-61
2020/12/24 04:52:57;;;;;;;7.10;1.97;;;13.00;99.90;;;13.32;53.53;100212.84;4882018;28;97499;-61
2020/12/24 04:55:24;;;;;;;10.03;2.20;;;13.00;99.90;;;13.45;53.65;100206.84;4882580;28;97831;-61
2020/12/24 04:57:50;;;;;;;11.27;2.20;;;13.10;99.90;;;13.42;53.54;100209.66;4899022;28;97065;-62
2020/12/24 05:00:17;;;;;;;9.20;2.20;;;13.10;99.90;;;13.40;54.75;100205.31;4888106;28;99052;-62
2020/12/24 05:02:43;;;;;;;9.80;2.80;;;13.00;99.90;;;13.31;54.59;100199.69;4882103;28;98453;-62
2020/12/24 05:05:09;;;;;;;9.73;2.87;;;13.00;99.90;;;13.33;55.12;100203.94;4868269;28;97111;-62
2020/12/24 05:07:40;;;;;;;7.13;1.77;;;13.00;99.90;;;13.31;54.98;100200.53;4903753;28;98096;-62
2020/12/24 05:10:12;;;;;;;9.30;2.10;;;13.00;99.90;;;13.28;55.67;100195.38;4868831;28;102612;-65
2020/12/24 05:12:37;;;;;;;5.20;1.63;;;12.90;99.90;;;13.35;55.91;100201.22;4885096;28;100701;-62
2020/12/24 05:15:03;;;;;;;7.33;2.03;;;12.90;99.90;;;13.25;56.00;100195.53;4892770;28;97491;-62
2020/12/24 05:17:29;;;;;;;10.60;2.63;;;12.90;99.90;;;13.26;55.08;100197.25;4883778;28;98924;-62
2020/12/24 05:19:59;;;;;;;9.53;1.80;;;12.90;99.90;;;13.12;54.86;100189.16;4856039;28;111542;-62
2020/12/24 05:22:25;;;;;;;8.63;2.43;;;12.80;99.90;;;13.11;55.37;100188.31;4899335;28;98453;-62
2020/12/24 05:24:51;;;;;;;9.50;2.10;;;12.80;99.90;;;13.05;56.44;100191.28;4883927;28;97334;-62
2020/12/24 05:27:20;;;;;;;9.23;1.97;;;12.70;99.90;;;13.09;56.38;100194.63;4887981;28;99354;-62
2020/12/24 05:29:50;;;;;;;7.10;1.47;;;12.70;99.90;;;12.97;55.41;100195.28;4864232;28;99006;-62
2020/12/24 05:32:29;;;;;;;8.67;1.97;;;12.70;99.90;;;13.00;55.92;100200.41;4881684;28;98038;-62
2020/12/24 05:35:26;;;;;;;8.20;1.93;;;12.70;99.90;;;13.13;55.62;100196.16;4890648;28;99705;-62
2020/12/24 05:37:53;;;;;;;7.20;1.63;;;12.80;99.90;;;12.97;55.70;100197.91;4866865;28;100268;-62
2020/12/24 05:40:20;;;;;;;5.83;1.40;;;12.70;99.90;;;13.25;60.36;100192.03;4889930;28;100824;-62
2020/12/24 05:42:54;;;;;;;3.73;1.37;;;12.80;99.90;;;13.12;54.89;100205.06;4890054;28;103882;-62
2020/12/24 05:45:32;;;;;;;11.47;1.77;;;12.80;99.90;;;13.54;55.56;100201.06;4902640;28;98323;-62
2020/12/24 05:48:10;;;;;;;6.23;1.60;;;13.10;99.90;;;13.30;54.54;100198.78;4869932;28;99854;-62
2020/12/24 05:50:38;;;;;;;8.00;1.60;;;13.00;99.90;;;13.25;55.30;100195.53;4901905;28;98422;-62
2020/12/24 05:53:16;;;;;;;7.33;1.80;;;12.90;99.90;;;13.18;55.11;100191.53;4851526;28;100390;-62
2020/12/24 05:55:43;;;;;;;7.50;1.63;;;12.90;99.90;;;13.45;55.46;100196.25;4902750;28;99434;-62
2020/12/24 05:58:09;;;;;;;5.70;1.50;;;13.00;99.90;;;13.33;54.26;100203.94;4854807;28;99579;-62
2020/12/24 06:00:41;;;;;;;5.23;1.40;;;13.00;99.90;;;13.51;54.59;100201.22;4888648;28;98491;-62
2020/12/24 06:03:15;;;;;;;8.03;1.70;;;13.20;99.90;;;13.35;55.03;100196.78;4858709;28;101687;-62
2020/12/24 06:05:54;;;;;;;6.10;1.27;;;13.10;99.90;;;13.60;60.30;100195.44;4904012;28;97654;-65
2020/12/24 06:08:28;;;;;;;5.37;1.60;;;13.10;99.90;;;13.73;56.45;100196.44;4874203;28;101027;-62
2020/12/24 06:11:10;;;;;;;6.33;1.70;;;13.50;99.90;;;13.67;53.49;100202.09;4884047;28;98392;-62
2020/12/24 06:13:50;;;;;;;3.40;0.83;;;13.50;99.90;;;13.53;54.72;100196.69;4876639;28;100965;-62
2020/12/24 06:16:16;;;;;;;5.33;1.27;;;13.20;99.90;;;13.32;54.12;100191.66;4881926;28;98872;-62
2020/12/24 06:18:45;;;;;;;6.03;1.37;;;13.00;99.90;;;13.30;55.14;100193.50;4871283;28;98615;-64
2020/12/24 06:21:15;;;;;;;2.60;1.00;;;13.00;99.90;;;13.46;55.52;100195.34;4899689;28;97368;-62
2020/12/24 06:23:47;;;;;;;4.03;0.93;;;13.10;99.90;;;13.40;55.36;100200.00;4853086;28;97837;-63
2020/12/24 06:26:27;;;;;;;3.80;1.50;;;13.00;99.90;;;13.30;55.02;100204.09;4904707;28;97209;-62
2020/12/24 06:28:59;;;;;;;4.67;1.50;;;13.00;99.90;;;13.25;54.49;100202.63;4867079;28;104229;-62
2020/12/24 06:31:26;;;;;;;5.87;1.17;;;12.90;99.90;;;13.15;55.37;100206.69;4901189;28;97334;-62
2020/12/24 06:33:52;;;;;;;5.17;1.50;;;12.80;99.90;;;13.06;55.05;100205.38;4854670;28;97001;-62
2020/12/24 06:36:48;;;;;;;5.53;1.27;;;12.70;99.90;;;13.15;57.97;100194.28;4903503;28;101054;-62
2020/12/24 06:39:13;;;;;;;5.53;1.30;;;12.70;99.90;;;13.20;59.51;100194.94;4858010;28;103102;-62
2020/12/24 06:41:41;;;;;;;4.30;1.50;;;12.80;99.90;;;13.21;56.13;100191.38;4886959;28;103227;-62
2020/12/24 06:44:10;;;;;;;3.90;1.27;;;12.90;99.90;;;13.15;55.11;100194.28;4879998;28;97173;-62
2020/12/24 06:46:58;;;;;;;5.03;1.20;;;12.80;99.90;;;13.03;54.81;100200.25;4885729;28;99666;-62
2020/12/24 06:49:35;;;;;;;4.27;1.27;;;12.70;99.90;;;12.97;55.03;100200.56;4859232;28;104121;-62
2020/12/24 06:52:01;;;;;;;4.80;0.93;;;12.70;99.90;;;12.93;56.02;100205.19;4894023;28;98640;-62
2020/12/24 06:54:28;;;;;;;3.70;1.00;;;12.60;99.90;;;12.88;55.45;100209.88;4880721;28;97269;-62
2020/12/24 06:57:22;;;;;;;4.03;1.03;;;12.60;99.90;;;12.89;56.51;100219.53;4878224;28;97276;-61
2020/12/24 07:00:17;;;;;;;4.07;1.10;;;12.50;99.90;;;13.04;59.05;100221.34;4854761;28;99368;-62
2020/12/24 07:02:50;;;;;;;5.07;1.10;;;12.60;99.90;;;12.90;55.36;100221.22;4880557;28;104197;-62
2020/12/24 07:05:41;;;;;;;3.03;1.20;;;12.60;99.90;;;13.03;54.95;100232.88;4858988;28;98242;-62
2020/12/24 07:08:09;;;;;;;3.57;0.97;;;12.80;99.90;;;13.05;55.84;100230.16;4907959;28;97057;-62
2020/12/24 07:10:45;;;;;;;2.57;0.90;;;12.70;99.90;;;13.10;55.33;100233.41;4868647;28;99900;-62
2020/12/24 07:13:35;;;;;;;4.37;1.10;;;12.70;99.90;;;13.25;55.36;100243.22;4891935;28;103443;-62
2020/12/24 07:16:10;;;;;;;2.77;0.80;;;12.90;99.90;;;13.34;56.34;100242.75;4861662;28;101812;-62
2020/12/24 07:18:40;;;;;;;2.90;1.07;;;12.90;99.90;;;13.11;54.89;100246.56;4882411;28;98989;-62
2020/12/24 07:21:11;;;;;;;3.70;1.23;;;12.80;99.90;;;13.12;58.94;100250.06;4859036;28;105118;-62
2020/12/24 07:23:39;;;;;;;3.20;0.90;;;12.70;99.90;;;13.03;54.67;100246.13;4881957;28;104421;-62
2020/12/24 07:26:09;;;;;;;3.47;1.10;;;12.70;99.90;;;13.18;54.63;100252.44;4874743;28;98104;-62
2020/12/24 07:28:38;;;;;;;2.07;0.87;;;12.80;99.90;;;13.10;55.37;100246.66;4882389;28;96995;-62
2020/12/24 07:31:09;;;;;;;4.50;1.13;;;12.80;99.90;;;13.04;54.93;100252.28;4857793;28;100572;-62
2020/12/24 07:33:44;;;;;;;3.27;0.80;;;12.70;99.90;;;13.13;54.95;100259.72;4883291;28;99335;-62
2020/12/24 07:36:11;;;;;;;4.87;1.40;;;12.70;99.90;;;13.08;55.26;100257.31;4878508;28;99734;-62
2020/12/24 07:38:37;;;;;;;4.03;1.10;;;12.80;99.90;;;13.06;55.03;100263.63;4904276;28;97279;-62
2020/12/24 07:41:03;;;;;;;4.67;1.27;;;12.70;99.90;;;13.04;55.32;100261.06;4876917;28;98779;-62
2020/12/24 07:43:29;;;;;;;4.23;1.27;;;12.70;99.90;;;13.01;55.23;100255.06;4874764;28;98558;-62
2020/12/24 07:45:55;;;;;;;3.30;1.03;;;12.70;99.90;;;12.93;55.85;100273.16;4872234;28;97577;-62
2020/12/24 07:48:23;;;;;;;2.73;0.90;;;12.60;99.90;;;12.93;56.03;100273.16;4890624;28;109601;-62
2020/12/24 07:50:51;;;;;;;3.97;0.93;;;12.60;99.90;;;12.89;55.65;100277.75;4887044;28;100640;-62
2020/12/24 07:53:26;;;;;;;3.40;1.13;;;12.60;99.90;;;12.98;58.25;100285.19;4891719;28;97622;-62
2020/12/24 07:55:52;;;;;;;4.70;1.17;;;12.60;99.90;;;13.02;55.33;100272.69;4875634;28;103294;-62
2020/12/24 07:58:19;;;;;;;2.97;1.07;;;12.70;99.90;;;12.91;56.33;100275.88;4873320;28;97111;-62
2020/12/24 08:00:45;;;;;;;4.40;1.27;;;12.60;99.90;;;12.88;56.33;100277.84;4884448;28;97751;-62
2020/12/24 08:03:17;;;;;;;3.20;0.70;;;12.60;99.90;;;12.92;56.66;100271.44;4865230;28;99076;-62
2020/12/24 08:05:44;;;;;;;4.40;0.80;;;12.60;99.90;;;12.89;55.70;100283.03;4880287;28;99649;-64
2020/12/24 08:08:11;;;;;;;3.27;0.90;;;12.60;99.90;;;13.07;55.20;100289.19;4857689;28;101773;-62
2020/12/24 08:10:41;;;;;;;1.73;0.57;;;12.70;99.90;;;12.95;55.27;100288.00;4883243;28;102475;-62
2020/12/24 08:13:09;;;;;;;3.10;1.00;;;12.60;99.90;;;12.90;55.55;100289.19;4865239;28;102584;-62
2020/12/24 08:15:41;;;;;;;4.10;0.87;;;12.60;99.90;;;12.88;55.74;100291.91;4895705;28;97439;-62
2020/12/24 08:18:13;;;;;;;5.10;1.67;;;12.60;99.90;;;12.90;55.63;100290.06;4886075;28;99114;-62
2020/12/24 08:21:03;;;;;;;2.83;1.03;;;12.60;99.90;;;12.90;55.96;100291.84;4871491;28;99660;-62
2020/12/24 08:23:44;;;;;;;2.87;0.70;;;12.60;99.90;;;12.89;56.25;100293.63;4869731;28;104183;-62
2020/12/24 08:26:12;;;;;;;2.90;1.00;;;12.50;99.90;;;12.86;56.62;100298.19;4914603;28;99202;-61
2020/12/24 08:28:44;;;;;;;3.40;1.13;;;12.50;99.90;;;12.78;56.38;100296.81;4877586;28;100438;-61
2020/12/24 08:31:10;;;;;;;4.53;1.20;;;12.50;99.90;;;12.75;55.93;100296.97;4869498;28;102361;-61
2020/12/24 08:33:40;;;;;;;3.60;1.10;;;12.50;99.90;;;13.40;61.61;100302.47;4892461;28;97196;-62
2020/12/24 08:36:21;;;;;;;3.30;1.27;;;12.90;99.90;;;13.58;57.37;100295.34;4869031;28;96826;-61
2020/12/24 08:38:48;;;;;;;3.40;1.40;;;13.20;99.90;;;13.46;53.98;100309.25;4890262;28;97477;-62
2020/12/24 08:41:24;;;;;;;3.00;1.17;;;13.20;99.90;;;13.57;55.47;100320.97;4885472;28;99329;-62
2020/12/24 08:43:55;;;;;;;4.70;1.00;;;13.20;99.90;;;13.99;55.72;100309.84;4885041;28;98732;-62
2020/12/24 08:46:23;;;;;;;4.27;1.03;;;13.60;99.90;;;14.07;58.29;100312.09;4868654;28;98142;-62
2020/12/24 08:48:50;;;;;;;4.67;1.17;;;13.70;99.90;;;14.31;57.16;100320.47;4869389;28;97514;-62
2020/12/24 08:51:20;;;;;;;5.13;1.30;;;14.00;99.90;;;14.73;57.20;100324.28;4865998;28;99810;-62
2020/12/24 08:53:46;;;;;;;2.33;1.10;;;14.40;99.90;;;14.83;56.25;100323.69;4890340;28;97647;-63
2020/12/24 08:56:18;;;;;;;6.93;1.30;;;14.60;99.90;;;14.65;56.31;100332.72;4873564;28;101143;-62
2020/12/24 08:58:53;;;;;;;5.47;1.10;;;14.40;99.90;;;14.72;54.88;100333.19;4873527;28;97100;-62
2020/12/24 09:01:21;;;;;;;5.90;1.80;;;14.40;99.90;;;14.69;56.15;100336.03;4901474;28;105224;-61
2020/12/24 09:03:47;;;;;;;5.43;1.47;;;14.30;99.90;;;14.83;56.60;100333.44;4873685;28;98600;-62
2020/12/24 09:06:18;;;;;;;2.20;0.77;;;14.40;99.90;;;15.09;51.43;100339.88;4866858;28;96845;-62
2020/12/24 09:08:51;;;;;;;4.33;1.70;;;14.90;99.90;;;14.64;51.83;100338.13;4873063;28;97201;-64
2020/12/24 09:11:27;;;;;;;3.37;1.17;;;14.40;99.90;;;14.74;52.12;100344.59;4882652;28;97536;-62
2020/12/24 09:13:58;;;;;;;4.30;1.30;;;14.40;99.90;;;14.55;52.54;100345.66;4881430;28;99440;-62
2020/12/24 09:16:24;;;;;;;3.37;1.33;;;14.30;99.90;;;14.82;55.44;100359.13;4883391;28;100939;-62
2020/12/24 09:19:01;;;;;;;5.37;1.33;;;14.40;99.90;;;14.98;56.11;100363.56;4898094;28;97620;-62
2020/12/24 09:21:27;;;;;;;3.43;1.30;;;14.60;99.90;;;14.75;55.33;100367.53;4878983;28;97796;-62
2020/12/24 09:24:04;;;;;;;3.93;1.73;;;14.30;99.90;;;14.26;53.28;100375.56;4888194;28;97478;-62
2020/12/24 09:26:29;;;;;;;7.87;1.87;;;14.00;99.90;;;13.73;56.10;100376.69;4888790;28;97092;-61
2020/12/24 09:28:55;;;;;;;3.90;1.60;;;13.40;99.90;;;13.65;56.06;100378.91;4889605;28;113575;-62
2020/12/24 09:31:21;;;;;;;1.40;0.90;;;13.20;99.90;;;13.50;60.25;100390.28;4907689;28;98227;-61
2020/12/24 09:33:47;;;;;;;3.63;1.47;;;12.90;99.90;;;13.45;58.69;100397.59;4868879;28;116447;-62
2020/12/24 09:36:15;;;;;;;1.90;0.83;;;13.00;99.90;;;13.69;58.14;100412.25;4887366;28;98983;-62
2020/12/24 09:38:41;;;;;;;0.43;0.37;;;13.20;99.90;;;13.87;55.74;100423.66;4882292;28;97407;-61
2020/12/24 09:41:06;;;;;;;0.83;0.50;;;13.50;99.90;;;13.46;53.19;100426.69;4888953;28;105743;-61
2020/12/24 09:43:32;;;;;;;1.03;0.67;;;13.20;99.90;;;13.85;59.00;100436.16;4883755;28;125459;-61
2020/12/24 09:45:58;;;;;;;1.10;0.50;;;13.30;99.90;;;13.74;58.13;100439.34;4885068;28;97721;-61
2020/12/24 09:48:24;;;;;;;1.37;0.60;;;13.20;99.90;;;13.88;51.48;100444.78;4883962;28;97369;-61
2020/12/24 09:50:49;;;;;;;0.73;0.40;;;13.50;99.90;;;14.16;51.79;100469.84;4875353;28;100641;-62
2020/12/24 09:53:15;;;;;;;0.27;0.20;;;13.90;99.90;;;14.42;56.40;100471.97;4871221;28;98700;-61
2020/12/24 09:55:41;;;;;;;1.20;0.43;;;14.10;99.90;;;15.00;56.50;100473.22;4906279;28;101200;-62
2020/12/24 09:58:08;;;;;;;0.73;0.30;;;14.60;99.90;;;14.80;48.75;100471.69;4869541;28;97314;-61
2020/12/24 10:00:34;;;;;;;0.50;0.40;;;14.70;98.10;;;14.92;54.98;100481.63;4881190;28;105510;-61
2020/12/24 10:02:59;;;;;;;0.97;0.60;;;14.60;99.90;;;15.22;55.38;100491.47;4858762;28;99648;-61
2020/12/24 10:05:25;;;;;;;0.47;0.30;;;14.90;99.90;;;15.72;53.93;100505.31;4862483;28;109684;-62
2020/12/24 10:07:51;;;;;;;1.67;0.73;;;15.50;99.90;;;16.10;53.00;100504.00;4874116;28;97242;-61
2020/12/24 10:10:17;;;;;;;1.30;0.53;;;16.10;99.90;;;16.32;52.56;100515.88;4866239;28;101064;-61
2020/12/24 10:12:43;;;;;;;0.70;0.37;;;16.40;99.90;;;16.54;52.14;100514.56;4857359;28;99210;-62
2020/12/24 10:15:08;;;;;;;1.67;0.33;;;16.60;99.60;;;16.71;46.29;100511.72;4850337;28;100547;-61